METAR Data
IDs: Format: Raw Decoded Include TAF

Data at: 0235 UTC 18 Jun 2019

PAYA 180153Z AUTO 20005KT 10SM SCT015 BKN050 13/09 A2980 RMK AO2 SLP090 T01280094 TSNO
PAYA 180053Z AUTO VRB03KT 10SM FEW018 13/10 A2980 RMK AO2 SLP091 T01280100 TSNO
PAYA 180050Z AUTO VRB04KT 10SM SCT018 13/10 A2980 RMK AO2 TSNO
PAYA 180029Z AUTO 20006KT 10SM FEW008 SCT011 OVC019 13/10 A2980 RMK AO2 T01280100 TSNO
PAYA 180006Z AUTO 17006KT 10SM FEW007 BKN013 OVC020 13/11 A2981 RMK AO2 T01280111 TSNO
PAYA 172353Z AUTO 21005KT 10SM BKN012 OVC020 12/11 A2980 RMK AO2 SLP093 60013 T01220106 10128 20117 51004 TSNO
PAYA 172316Z AUTO 19006KT 10SM FEW007 BKN011 OVC024 12/11 A2981 RMK AO2 T01220106 TSNO
PAYA 172309Z AUTO 18006KT 10SM SCT010 BKN014 OVC024 13/11 A2980 RMK AO2 T01280106 TSNO
PAYA 172258Z AUTO 17007KT 10SM SCT010 BKN015 OVC030 13/10 A2980 RMK AO2 T01280100 TSNO
PAYA 172253Z AUTO 17007KT 10SM BKN010 BKN015 OVC019 13/11 A2980 RMK AO2 RAE17 CIG 007V012 SLP092 P0000 T01280106 TSNO
PAYA 172223Z AUTO 18009KT 8SM BKN008 BKN014 OVC042 13/11 A2980 RMK AO2 RAE17 P0000 T01280111 TSNO
PAYA 172216Z AUTO 15007KT 5SM -RA BR SCT008 BKN026 OVC042 12/11 A2980 RMK AO2 P0000 T01220111 TSNO
PAYA 172153Z AUTO 14009KT 10SM -RA BKN008 BKN014 OVC024 12/11 A2980 RMK AO2 CIG 005V010 SLP091 P0003 T01220111 TSNO
PAYA 172124Z AUTO 14007KT 8SM -RA BKN008 BKN018 OVC033 12/11 A2980 RMK AO2 P0003 T01220111 TSNO
PAYA 172118Z AUTO 13008KT 5SM -RA BR SCT008 BKN031 OVC046 12/11 A2979 RMK AO2 P0002 T01170106 TSNO
PAYA 172053Z AUTO 14008KT 7SM -RA BKN009 BKN049 OVC060 12/11 A2979 RMK AO2 RAB19 SLP088 P0001 60010 T01220111 53009 TSNO
PAYA 172027Z AUTO 13009KT 10SM -RA BKN009 BKN015 OVC040 12/11 A2979 RMK AO2 RAB19 CIG 007V011 P0000 T01220111 TSNO
PAYA 172018Z AUTO 13008KT 10SM SCT009 BKN013 OVC040 12/11 A2979 RMK AO2 T01220111 TSNO $
PAYA 171953Z AUTO 14007KT 10SM SCT010 BKN018 OVC031 12/11 A2978 RMK AO2 RAB03E48 SLP084 P0002 T01220111 TSNO $
PAYA 171944Z AUTO 14007KT 10SM -RA SCT011 BKN018 OVC023 12/11 A2978 RMK AO2 RAB03 P0002 T01220106 TSNO $
PAYA 171923Z AUTO 14009G17KT 7SM -RA BKN009 BKN014 OVC037 12/11 A2977 RMK AO2 RAB03 P0002 T01220111 TSNO $
PAYA 171915Z AUTO 14007KT 2SM -RA BR BKN009 BKN015 OVC037 12/12 A2977 RMK AO2 RAB03 P0001 T01220117 TSNO $
PAYA 171912Z AUTO 13010KT 1 3/4SM -RA BR FEW006 BKN011 OVC037 12/11 A2977 RMK AO2 RAB03 P0001 T01220111 TSNO $
PAYA 171903Z AUTO 13006KT 8SM -RA SCT007 BKN014 OVC037 12/11 A2977 RMK AO2 RAB03 P0000 T01220111 TSNO $
PAYA 171853Z AUTO 15007KT 10SM BKN007 BKN018 OVC039 12/11 A2977 RMK AO2 RAB11E38 SLP079 P0007 T01220111 TSNO $
PAYA 171851Z AUTO 14007KT 10SM BKN007 BKN018 OVC039 12/11 A2976 RMK AO2 RAB11E38 P0007 TSNO $
PAYA 171838Z AUTO 14006KT 5SM BR SCT005 BKN010 OVC025 12/11 A2976 RMK AO2 RAB11E38 P0007 T01170111 TSNO $
PAYA 171829Z AUTO 14008KT 2SM -RA BR FEW005 BKN010 OVC027 12/11 A2976 RMK AO2 RAB11 P0007 T01170111 TSNO $
PAYA 171818Z AUTO 15006KT 1 1/4SM RA BR BKN008 OVC013 12/11 A2976 RMK AO2 RAB11 CIG 005V010 P0001 T01220111 TSNO $
PAYA 171814Z AUTO 13007KT 2 1/2SM RA BR BKN008 BKN011 OVC020 12/11 A2976 RMK AO2 RAB11 CIG 005V011 P0000 T01220111 TSNO $
PAYA 171800Z AUTO 12008KT 10SM SCT009 BKN013 OVC020 13/12 A2975 RMK AO2 T01280117 TSNO $
PAYA 171753Z AUTO 13007KT 10SM BKN009 BKN013 OVC028 13/11 A2975 RMK AO2 RAE20 CIG 007V011 SLP075 P0002 60014 T01280111 10128 20117 53008 TSNO $
PAYA 171746Z AUTO 12008KT 10SM BKN009 BKN021 OVC028 13/11 A2975 RMK AO2 RAE20 CIG 007V013 P0002 T01280111 TSNO $
PAYA 171736Z AUTO 13005KT 10SM SCT008 BKN020 OVC028 13/12 A2975 RMK AO2 RAE20 P0002 T01280117 TSNO $
PAYA 171727Z AUTO 13007KT 10SM BKN008 OVC020 12/12 A2975 RMK AO2 RAE20 P0002 T01220117 TSNO $
PAYA 171653Z AUTO 14006KT 5SM -RA BR SCT009 OVC015 12/11 A2974 RMK AO2 RAB19 SLP071 P0002 T01220111 TSNO $
PAYA 171619Z AUTO 13005KT 4SM -RA BR BKN007 BKN011 OVC033 12/11 A2973 RMK AO2 RAB19 P0000 T01220111 TSNO
PAYA 171604Z AUTO 14005KT 10SM SCT007 BKN019 OVC034 12/11 A2973 RMK AO2 T01220111 TSNO
PAYA 171553Z AUTO 13005KT 4SM BR SCT006 BKN011 OVC032 12/12 A2973 RMK AO2 RAE34 SLP066 P0000 T01220117 TSNO
PAYA 171544Z AUTO 14005KT 4SM BR BKN006 OVC014 12/12 A2972 RMK AO2 RAE34 P0000 T01220117 TSNO
PAYA 171534Z AUTO 14006KT 2SM BR BKN006 OVC013 12/11 A2972 RMK AO2 RAE34 P0000 T01220111 TSNO
PAYA 171453Z AUTO 13010KT 10SM -RA OVC006 12/12 A2972 RMK AO2 SLP064 P0002 60010 T01220117 51003 TSNO $
PAYA 171448Z AUTO 13010KT 9SM -RA OVC006 12/12 A2972 RMK AO2 P0002 TSNO
PAYA 171439Z AUTO 12009KT 2SM -RA BR OVC007 12/12 A2972 RMK AO2 P0002 T01220117 TSNO
PAYA 171400Z AUTO 11008G17KT 4SM -RA BR OVC006 12/11 A2971 RMK AO2 P0001 T01220111 TSNO $
PAYA 171353Z AUTO 13011G17KT 2 1/2SM RA BR OVC006 12/11 A2972 RMK AO2 SLP063 P0004 T01220111 TSNO $
PAYA 171335Z AUTO VRB06KT 2 1/2SM -RA BR OVC006 12/11 A2972 RMK AO2 P0002 T01170111 TSNO $
PAYA 171324Z AUTO 10007KT 4SM -RA BR BKN007 OVC012 12/11 A2971 RMK AO2 P0001 T01170111 TSNO $
PAYA 171313Z AUTO 11006KT 2 1/2SM -RA BR BKN006 OVC012 12/11 A2971 RMK AO2 P0000 T01170111 TSNO $
PAYA 171253Z AUTO 12010G15KT 3SM -RA BR BKN006 BKN014 OVC020 12/11 A2971 RMK AO2 SLP061 P0004 T01170111 TSNO $
PAYA 171233Z AUTO 12008KT 2 1/2SM -RA BR BKN006 OVC018 12/11 A2971 RMK AO2 P0002 T01170111 TSNO $
PAYA 171153Z AUTO 11006KT 3SM -RA BR BKN006 OVC011 12/11 A2971 RMK AO2 SLP060 P0008 60024 7//// T01170111 10122 20117 56007 TSNO $
PAYA 171148Z AUTO 09008KT 3SM -RA BR BKN006 OVC013 12/11 A2971 RMK AO2 P0008 TSNO $
PAYA 171136Z AUTO 09008KT 4SM -RA BR SCT007 OVC018 12/11 A2971 RMK AO2 P0007 T01170111 TSNO $
PAYA 171123Z AUTO 10006KT 6SM RA BR FEW015 BKN026 OVC032 12/11 A2971 RMK AO2 P0003 T01170111 TSNO $
PAYA 171112Z AUTO 10006KT 7SM RA FEW006 BKN030 OVC043 12/11 A2971 RMK AO2 P0002 T01170111 TSNO $
PAYA 171053Z AUTO 09008KT 4SM -RA BR FEW016 OVC026 12/11 A2972 RMK AO2 SLP063 P0003 T01170106 TSNO $
PAYA 171040Z AUTO 09008KT 7SM -RA FEW016 BKN026 OVC033 12/11 A2972 RMK AO2 P0003 T01170106 TSNO $
PAYA 170953Z AUTO 00000KT 10SM -RA OVC036 12/11 A2972 RMK AO2 SLP064 P0004 T01170111 TSNO $
PAYA 170937Z AUTO 10003KT 5SM -RA BR FEW025 OVC032 12/11 A2973 RMK AO2 P0003 T01170111 TSNO $
PAYA 170902Z AUTO 07005KT 10SM -RA BKN029 OVC038 12/11 A2973 RMK AO2 P0000 T01170111 TSNO $
PAYA 170853Z AUTO 05004KT 10SM -RA SCT031 OVC046 12/11 A2973 RMK AO2 SLP067 P0004 60009 T01170111 401440106 58017 TSNO $
PAYA 170753Z AUTO 04007KT 10SM -RA FEW042 BKN049 OVC075 12/11 A2975 RMK AO2 SLP073 P0001 T01170106 TSNO $
PAYA 170653Z AUTO 07005KT 7SM -RA OVC037 12/11 A2977 RMK AO2 SLP082 P0004 T01220111 TSNO $
PAYA 170553Z AUTO 05004KT 10SM -RA BKN039 BKN050 OVC075 12/11 A2978 RMK AO2 RAB18 SLP085 P0001 60014 T01220111 10144 20122 58025 TSNO $
PAYA 170502Z AUTO 10004KT 10SM SCT021 BKN042 OVC055 12/12 A2981 RMK AO2 P0001 T01220117 TSNO $
PAYA 170453Z AUTO 09005KT 10SM BKN021 OVC060 13/12 A2981 RMK AO2 RAE46 SLP094 P0004 T01280117 TSNO $
PAYA 170432Z AUTO 08005KT 5SM -RA BR SCT014 BKN020 OVC027 12/12 A2982 RMK AO2 P0004 T01220117 TSNO $
PAYA 170353Z AUTO 09007KT 5SM -RA BR OVC014 13/12 A2984 RMK AO2 SLP105 P0007 T01280117 TSNO $
PAYA 170330Z AUTO 11005KT 5SM RA BR FEW010 BKN016 OVC021 13/12 A2985 RMK AO2 P0003 T01280117 TSNO $
PAYA 170322Z AUTO 10009KT 5SM -RA BR FEW009 BKN013 OVC021 13/12 A2985 RMK AO2 P0003 T01280117 TSNO $
PAYA 170319Z AUTO 08006KT 4SM -RA BR FEW010 BKN016 OVC023 13/12 A2985 RMK AO2 P0003 T01280117 TSNO $
PAYA 170307Z AUTO 10007KT 2 1/2SM RA BR FEW010 BKN014 OVC021 13/12 A2985 RMK AO2 P0002 T01330117 TSNO $
PAYA 170253Z AUTO 10007KT 9SM -RA FEW012 OVC021 14/12 A2985 RMK AO2 RAB48 SLP109 P0000 60002 T01390117 58018 TSNO $
PAYA 170153Z AUTO 09007KT 10SM OVC015 13/12 A2988 RMK AO2 SLP117 T01330117 TSNO $
PAYA 170118Z AUTO 12010G18KT 10SM OVC016 14/12 A2989 RMK AO2 T01390117 TSNO $
PAYA 170104Z AUTO VRB04KT 10SM BKN014 OVC018 14/12 A2989 RMK AO2 T01390117 TSNO $
PAYA 170052Z AUTO 12006KT 10SM SCT008 BKN015 OVC021 14/12 A2989 RMK AO2 RAE33 SLP123 P0002 T01390117 TSNO $
PAYA 170051Z AUTO 12006KT 10SM SCT008 BKN015 OVC021 14/12 A2989 RMK AO2 RAE33 P0002 TSNO $
PAYA 170045Z AUTO 12007KT 10SM BKN009 BKN017 OVC023 14/12 A2990 RMK AO2 RAE33 CIG 007V014 P0002 T01440122 TSNO $
PAYA 170023Z AUTO 12005KT 4SM -RA BR BKN011 OVC016 13/12 A2991 RMK AO2 P0002 T01330122 TSNO $
PAYA 170004Z AUTO 13007KT 5SM -RA BR FEW007 BKN016 OVC023 13/12 A2990 RMK AO2 P0002 T01330122 TSNO $
PAYA 162353Z AUTO 09007KT 2 1/2SM RA BR FEW008 OVC014 13/12 A2991 RMK AO2 SLP127 P0001 60002 T01330117 10144 20122 57004 TSNO $
PAYA 162351Z AUTO 09009KT 2 1/2SM -RA BR FEW008 OVC012 13/12 A2991 RMK AO2 VIS 1 1/2V4 P0001 TSNO $
PAYA 162348Z AUTO 09008KT 4SM -RA BR BKN008 OVC014 13/12 A2991 RMK AO2 P0001 TSNO $
PAYA 162340Z AUTO 09008KT 8SM -RA SCT008 BKN015 OVC021 13/12 A2991 RMK AO2 P0001 T01330122 TSNO $
PAYA 162333Z AUTO 08007KT 5SM -RA BR BKN009 BKN013 OVC025 13/12 A2991 RMK AO2 P0001 T01330122 TSNO $
PAYA 162329Z AUTO 09008KT 2 1/2SM -RA BR SCT009 BKN015 OVC020 14/13 A2991 RMK AO2 P0001 T01390128 TSNO $
PAYA 162324Z AUTO 10007KT 2 1/2SM -RA BR BKN009 BKN012 OVC027 13/12 A2991 RMK AO2 P0001 T01330122 TSNO $
PAYA 162310Z AUTO 09007KT 5SM -RA BR FEW009 BKN014 OVC036 13/12 A2991 RMK AO2 P0000 T01330117 TSNO $
PAYA 162253Z AUTO 10009KT 6SM -RA BR FEW016 BKN031 OVC035 14/12 A2991 RMK AO2 RAE2154B20 SLP129 P0000 T01390117 TSNO $
PAYA 162237Z AUTO 10010KT 7SM -RA SCT022 OVC030 14/11 A2991 RMK AO2 RAE2154B20 P0000 T01390111 TSNO $
PAYA 162217Z AUTO 09009KT 10SM FEW013 BKN026 OVC034 14/11 A2991 RMK AO2 RAE2154 P0000 T01440106 TSNO $
PAYA 162153Z AUTO 08006KT 10SM -RA FEW010 BKN034 OVC050 14/12 A2992 RMK AO2 RAE10B27 SLP131 P0001 T01390117 TSNO $
PAYA 162146Z AUTO 07007KT 8SM -RA SCT010 BKN044 OVC055 13/12 A2992 RMK AO2 RAE10B27 P0001 T01330117 TSNO $
PAYA 162127Z AUTO 09006KT 10SM -RA BKN011 BKN035 OVC049 13/12 A2992 RMK AO2 RAE10B27 P0000 T01330117 TSNO $
PAYA 162116Z AUTO 09004KT 10SM BKN009 OVC034 13/12 A2992 RMK AO2 RAE10 P0000 T01280117 TSNO $
PAYA 162105Z AUTO 09005KT 4SM -RA BR SCT009 BKN015 OVC037 13/11 A2993 RMK AO2 P0000 T01280111 TSNO $
PAYA 162053Z AUTO 09006KT 3SM -RA BR SCT010 BKN015 OVC031 13/11 A2993 RMK AO2 RAB26E43B51 SLP136 P0000 60000 T01280111 56001 TSNO $
PAYA 162050Z AUTO 08007KT 4SM BR SCT010 BKN015 OVC026 13/11 A2993 RMK AO2 RAB26E43 P0000 TSNO $
PAYA 161953Z AUTO 10006KT 10SM BKN014 OVC019 13/11 A2994 RMK AO2 SLP137 T01280106 TSNO $
PAYA 161924Z AUTO 10008KT 9SM BKN011 BKN019 OVC027 13/11 A2994 RMK AO2 T01280106 TSNO $
PAYA 161853Z AUTO 10008KT 10SM BKN009 BKN014 OVC027 12/11 A2994 RMK AO2 RAB27E37 CIG 008V012 SLP137 P0000 T01220106 TSNO $
PAYA 161849Z AUTO 10007KT 10SM SCT009 BKN014 OVC027 12/11 A2994 RMK AO2 RAB27E37 P0000 TSNO $
PAYA 161825Z AUTO 11005KT 10SM SCT010 BKN016 OVC023 12/11 A2994 RMK AO2 T01220106 TSNO $
PAYA 161753Z AUTO 11004KT 10SM FEW010 BKN013 OVC034 13/11 A2993 RMK AO2 SLP137 6//// T01280106 10128 20106 TSNO $
PAYA 161737Z AUTO 13008KT 10SM FEW009 BKN013 OVC032 12/11 A2993 RMK AO2 T01220111 TSNO $
PAYA 161715Z AUTO 14006KT 10SM SCT009 BKN015 OVC030 12/11 A2993 RMK AO2 T01220111 TSNO $
PAYA 161653Z AUTO 13007KT 10SM 12/11 A2993 RMK AO2 RAB20 SLP134 T01220106 TSNO $
PAYA 161629Z AUTO 11005KT 3SM -RA BR FEW006 BKN010 OVC025 12/11 A2992 RMK AO2 RAB20 CIG 009V012 P0000 T01170111 TSNO $
PAYA 161627Z AUTO 11006KT 2 1/2SM -RA BR FEW006 BKN018 OVC025 12/11 A2992 RMK AO2 VIS 2V3 RAB20 P0000 T01170111 TSNO $
PAYA 161553Z AUTO 12004KT 10SM FEW012 BKN020 OVC026 12/11 A2992 RMK AO2 RAE18B45E53 SLP132 P0000 T01220106 TSNO $
PAYA 161531Z AUTO 13004KT 10SM BKN015 OVC021 12/11 A2992 RMK AO2 RAE18 P0000 T01220111 TSNO $
PAYA 161518Z AUTO 13006KT 10SM SCT005 OVC013 12/11 A2991 RMK AO2 RAE18 P0000 T01170111 TSNO $
PAYA 161453Z AUTO 11006KT 3SM -RA BR OVC005 11/11 A2991 RMK AO2 RAB13E28B50 SLP127 P0001 60005 T01110106 53007 TSNO $